sensor_id;sensor_type;location;lat;lon;timestamp;temperature;humidity
9542;DHT22;4809;48.224;8.572;2023-07-22T00:02:12;13.10;99.90
9542;DHT22;4809;48.224;8.572;2023-07-22T00:04:37;13.20;99.90
9542;DHT22;4809;48.224;8.572;2023-07-22T00:07:03;13.10;99.90
9542;DHT22;4809;48.224;8.572;2023-07-22T00:09:29;13.00;99.90
9542;DHT22;4809;48.224;8.572;2023-07-22T00:11:59;13.00;99.90
9542;DHT22;4809;48.224;8.572;2023-07-22T00:14:24;13.00;99.90
9542;DHT22;4809;48.224;8.572;2023-07-22T00:16:50;13.00;99.90
9542;DHT22;4809;48.224;8.572;2023-07-22T00:19:16;13.00;99.90
9542;DHT22;4809;48.224;8.572;2023-07-22T00:21:41;13.00;99.90
9542;DHT22;4809;48.224;8.572;2023-07-22T00:24:07;12.90;99.90
9542;DHT22;4809;48.224;8.572;2023-07-22T00:26:33;12.80;99.90
9542;DHT22;4809;48.224;8.572;2023-07-22T00:28:59;12.80;99.90
9542;DHT22;4809;48.224;8.572;2023-07-22T00:31:24;12.70;99.90
9542;DHT22;4809;48.224;8.572;2023-07-22T00:33:50;12.70;99.90
9542;DHT22;4809;48.224;8.572;2023-07-22T00:36:16;12.70;99.90
9542;DHT22;4809;48.224;8.572;2023-07-22T00:38:41;12.70;99.90
9542;DHT22;4809;48.224;8.572;2023-07-22T00:41:07;12.60;99.90
9542;DHT22;4809;48.224;8.572;2023-07-22T00:43:33;12.70;99.90
9542;DHT22;4809;48.224;8.572;2023-07-22T00:45:58;12.70;99.90
9542;DHT22;4809;48.224;8.572;2023-07-22T00:48:25;12.70;99.90
9542;DHT22;4809;48.224;8.572;2023-07-22T00:50:53;12.70;99.90
9542;DHT22;4809;48.224;8.572;2023-07-22T00:53:19;12.60;99.90
9542;DHT22;4809;48.224;8.572;2023-07-22T00:55:45;12.60;99.90
9542;DHT22;4809;48.224;8.572;2023-07-22T00:58:11;12.50;99.90
9542;DHT22;4809;48.224;8.572;2023-07-22T01:00:36;12.40;99.90
9542;DHT22;4809;48.224;8.572;2023-07-22T01:03:03;12.40;99.90
9542;DHT22;4809;48.224;8.572;2023-07-22T01:05:30;12.50;99.90
9542;DHT22;4809;48.224;8.572;2023-07-22T01:07:56;12.40;99.90
9542;DHT22;4809;48.224;8.572;2023-07-22T01:10:22;12.40;99.90
9542;DHT22;4809;48.224;8.572;2023-07-22T01:12:48;12.50;99.90
9542;DHT22;4809;48.224;8.572;2023-07-22T01:15:14;12.40;99.90
9542;DHT22;4809;48.224;8.572;2023-07-22T01:17:40;12.40;99.90
9542;DHT22;4809;48.224;8.572;2023-07-22T01:20:06;12.40;99.90
9542;DHT22;4809;48.224;8.572;2023-07-22T01:22:33;12.30;99.90
9542;DHT22;4809;48.224;8.572;2023-07-22T01:25:00;12.30;99.90
9542;DHT22;4809;48.224;8.572;2023-07-22T01:27:26;12.30;99.90
9542;DHT22;4809;48.224;8.572;2023-07-22T01:29:52;12.30;99.90
9542;DHT22;4809;48.224;8.572;2023-07-22T01:32:18;12.30;99.90
9542;DHT22;4809;48.224;8.572;2023-07-22T01:34:45;12.30;99.90
9542;DHT22;4809;48.224;8.572;2023-07-22T01:37:11;12.20;99.90
9542;DHT22;4809;48.224;8.572;2023-07-22T01:39:37;12.20;99.90
9542;DHT22;4809;48.224;8.572;2023-07-22T01:42:03;12.20;99.90
9542;DHT22;4809;48.224;8.572;2023-07-22T01:44:29;12.20;99.90
9542;DHT22;4809;48.224;8.572;2023-07-22T01:46:55;12.10;99.90
9542;DHT22;4809;48.224;8.572;2023-07-22T01:49:21;12.10;99.90
9542;DHT22;4809;48.224;8.572;2023-07-22T01:51:47;12.10;99.90
9542;DHT22;4809;48.224;8.572;2023-07-22T01:54:12;12.10;99.90
9542;DHT22;4809;48.224;8.572;2023-07-22T01:56:38;12.20;99.90
9542;DHT22;4809;48.224;8.572;2023-07-22T01:59:05;12.20;99.90
9542;DHT22;4809;48.224;8.572;2023-07-22T02:01:31;12.20;99.90
9542;DHT22;4809;48.224;8.572;2023-07-22T02:03:57;12.20;99.90
9542;DHT22;4809;48.224;8.572;2023-07-22T02:06:22;12.10;99.90
9542;DHT22;4809;48.224;8.572;2023-07-22T02:08:48;12.10;99.90
9542;DHT22;4809;48.224;8.572;2023-07-22T02:11:14;12.00;99.90
9542;DHT22;4809;48.224;8.572;2023-07-22T02:13:40;12.00;99.90
9542;DHT22;4809;48.224;8.572;2023-07-22T02:16:05;11.90;99.90
9542;DHT22;4809;48.224;8.572;2023-07-22T02:18:31;12.00;99.90
9542;DHT22;4809;48.224;8.572;2023-07-22T02:20:57;11.90;99.90
9542;DHT22;4809;48.224;8.572;2023-07-22T02:23:23;11.80;99.90
9542;DHT22;4809;48.224;8.572;2023-07-22T02:25:50;11.90;99.90
9542;DHT22;4809;48.224;8.572;2023-07-22T02:28:16;11.90;99.90
9542;DHT22;4809;48.224;8.572;2023-07-22T02:30:46;12.00;99.90
9542;DHT22;4809;48.224;8.572;2023-07-22T02:33:11;12.00;99.90
9542;DHT22;4809;48.224;8.572;2023-07-22T02:35:37;12.10;99.90
9542;DHT22;4809;48.224;8.572;2023-07-22T02:38:03;12.10;99.90
9542;DHT22;4809;48.224;8.572;2023-07-22T02:40:28;12.20;99.90
9542;DHT22;4809;48.224;8.572;2023-07-22T02:42:54;12.20;99.90
9542;DHT22;4809;48.224;8.572;2023-07-22T02:45:19;12.10;99.90
9542;DHT22;4809;48.224;8.572;2023-07-22T02:47:45;12.10;99.90
9542;DHT22;4809;48.224;8.572;2023-07-22T02:50:11;12.00;99.90
9542;DHT22;4809;48.224;8.572;2023-07-22T02:52:36;12.00;99.90
9542;DHT22;4809;48.224;8.572;2023-07-22T02:57:37;11.90;99.90
9542;DHT22;4809;48.224;8.572;2023-07-22T03:00:03;11.90;99.90
9542;DHT22;4809;48.224;8.572;2023-07-22T03:02:53;11.80;99.90
9542;DHT22;4809;48.224;8.572;2023-07-22T03:05:26;11.80;99.90
9542;DHT22;4809;48.224;8.572;2023-07-22T03:07:53;11.80;99.90
9542;DHT22;4809;48.224;8.572;2023-07-22T03:10:19;11.70;99.90
9542;DHT22;4809;48.224;8.572;2023-07-22T03:12:45;11.70;99.90
9542;DHT22;4809;48.224;8.572;2023-07-22T03:15:11;11.60;99.90
9542;DHT22;4809;48.224;8.572;2023-07-22T03:17:38;11.60;99.90
9542;DHT22;4809;48.224;8.572;2023-07-22T03:20:05;11.60;99.90
9542;DHT22;4809;48.224;8.572;2023-07-22T03:22:40;11.60;99.90
9542;DHT22;4809;48.224;8.572;2023-07-22T03:25:06;11.70;99.90
9542;DHT22;4809;48.224;8.572;2023-07-22T03:27:34;11.70;99.90
9542;DHT22;4809;48.224;8.572;2023-07-22T03:30:01;11.70;99.90
9542;DHT22;4809;48.224;8.572;2023-07-22T03:32:27;11.60;99.90
9542;DHT22;4809;48.224;8.572;2023-07-22T03:34:53;11.60;99.90
9542;DHT22;4809;48.224;8.572;2023-07-22T03:37:18;11.50;99.90
9542;DHT22;4809;48.224;8.572;2023-07-22T03:39:45;11.50;99.90
9542;DHT22;4809;48.224;8.572;2023-07-22T03:42:11;11.50;99.90
9542;DHT22;4809;48.224;8.572;2023-07-22T03:44:37;11.50;99.90
9542;DHT22;4809;48.224;8.572;2023-07-22T03:47:03;11.50;99.90
9542;DHT22;4809;48.224;8.572;2023-07-22T03:49:28;11.50;99.90
9542;DHT22;4809;48.224;8.572;2023-07-22T03:51:54;11.50;99.90
9542;DHT22;4809;48.224;8.572;2023-07-22T03:54:19;11.60;99.90
9542;DHT22;4809;48.224;8.572;2023-07-22T03:56:45;11.60;99.90
9542;DHT22;4809;48.224;8.572;2023-07-22T03:59:11;11.60;99.90
9542;DHT22;4809;48.224;8.572;2023-07-22T04:01:36;11.70;99.90
9542;DHT22;4809;48.224;8.572;2023-07-22T04:04:02;11.70;99.90
9542;DHT22;4809;48.224;8.572;2023-07-22T04:06:28;11.70;99.90
9542;DHT22;4809;48.224;8.572;2023-07-22T04:08:54;11.60;99.90
9542;DHT22;4809;48.224;8.572;2023-07-22T04:11:19;11.60;99.90
9542;DHT22;4809;48.224;8.572;2023-07-22T04:13:45;11.60;99.90
9542;DHT22;4809;48.224;8.572;2023-07-22T04:16:10;11.60;99.90
9542;DHT22;4809;48.224;8.572;2023-07-22T04:18:36;11.60;99.90
9542;DHT22;4809;48.224;8.572;2023-07-22T04:21:01;11.60;99.90
9542;DHT22;4809;48.224;8.572;2023-07-22T04:23:27;11.70;99.90
9542;DHT22;4809;48.224;8.572;2023-07-22T04:25:53;11.70;99.90
9542;DHT22;4809;48.224;8.572;2023-07-22T04:28:19;11.60;99.90
9542;DHT22;4809;48.224;8.572;2023-07-22T04:30:57;11.60;99.90
9542;DHT22;4809;48.224;8.572;2023-07-22T04:33:24;11.60;99.90
9542;DHT22;4809;48.224;8.572;2023-07-22T04:35:52;11.60;99.90
9542;DHT22;4809;48.224;8.572;2023-07-22T04:38:18;11.70;99.90
9542;DHT22;4809;48.224;8.572;2023-07-22T04:40:44;11.80;99.90
9542;DHT22;4809;48.224;8.572;2023-07-22T04:43:09;11.90;99.90
9542;DHT22;4809;48.224;8.572;2023-07-22T04:45:35;11.90;99.90
9542;DHT22;4809;48.224;8.572;2023-07-22T04:48:02;12.00;99.90
9542;DHT22;4809;48.224;8.572;2023-07-22T04:50:27;12.00;99.90
9542;DHT22;4809;48.224;8.572;2023-07-22T04:52:54;12.00;99.90
9542;DHT22;4809;48.224;8.572;2023-07-22T04:55:20;12.10;99.90
9542;DHT22;4809;48.224;8.572;2023-07-22T04:57:46;12.20;99.90
9542;DHT22;4809;48.224;8.572;2023-07-22T05:00:12;12.20;99.90
9542;DHT22;4809;48.224;8.572;2023-07-22T05:02:46;12.30;99.90
9542;DHT22;4809;48.224;8.572;2023-07-22T05:05:15;12.40;99.90
9542;DHT22;4809;48.224;8.572;2023-07-22T05:07:41;12.40;99.90
9542;DHT22;4809;48.224;8.572;2023-07-22T05:10:08;12.60;99.90
9542;DHT22;4809;48.224;8.572;2023-07-22T05:12:38;12.60;99.90
9542;DHT22;4809;48.224;8.572;2023-07-22T05:15:04;12.80;99.90
9542;DHT22;4809;48.224;8.572;2023-07-22T05:17:30;12.80;99.90
9542;DHT22;4809;48.224;8.572;2023-07-22T05:19:57;12.90;99.90
9542;DHT22;4809;48.224;8.572;2023-07-22T05:22:23;13.00;99.90
9542;DHT22;4809;48.224;8.572;2023-07-22T05:24:49;13.10;99.90
9542;DHT22;4809;48.224;8.572;2023-07-22T05:27:14;13.20;99.90
9542;DHT22;4809;48.224;8.572;2023-07-22T05:29:40;13.30;99.90
9542;DHT22;4809;48.224;8.572;2023-07-22T05:32:06;13.40;99.90
9542;DHT22;4809;48.224;8.572;2023-07-22T05:34:32;13.60;99.90
9542;DHT22;4809;48.224;8.572;2023-07-22T05:36:58;13.70;99.90
9542;DHT22;4809;48.224;8.572;2023-07-22T05:39:23;13.90;99.90
9542;DHT22;4809;48.224;8.572;2023-07-22T05:41:49;14.00;99.90
9542;DHT22;4809;48.224;8.572;2023-07-22T05:44:14;14.20;99.90
9542;DHT22;4809;48.224;8.572;2023-07-22T05:46:40;14.30;99.90
9542;DHT22;4809;48.224;8.572;2023-07-22T05:49:06;14.50;99.90
9542;DHT22;4809;48.224;8.572;2023-07-22T05:51:31;14.60;99.90
9542;DHT22;4809;48.224;8.572;2023-07-22T05:53:57;14.70;99.90
9542;DHT22;4809;48.224;8.572;2023-07-22T05:56:23;14.80;99.90
9542;DHT22;4809;48.224;8.572;2023-07-22T05:58:49;15.00;99.90
9542;DHT22;4809;48.224;8.572;2023-07-22T06:01:15;15.20;99.90
9542;DHT22;4809;48.224;8.572;2023-07-22T06:03:40;15.30;99.90
9542;DHT22;4809;48.224;8.572;2023-07-22T06:06:07;15.50;99.90
9542;DHT22;4809;48.224;8.572;2023-07-22T06:08:33;15.60;99.90
9542;DHT22;4809;48.224;8.572;2023-07-22T06:10:58;15.70;99.90
9542;DHT22;4809;48.224;8.572;2023-07-22T06:13:24;15.90;99.90
9542;DHT22;4809;48.224;8.572;2023-07-22T06:15:50;16.10;99.90
9542;DHT22;4809;48.224;8.572;2023-07-22T06:18:15;16.20;99.90
9542;DHT22;4809;48.224;8.572;2023-07-22T06:20:41;16.30;99.90
9542;DHT22;4809;48.224;8.572;2023-07-22T06:23:06;16.50;99.90
9542;DHT22;4809;48.224;8.572;2023-07-22T06:25:32;16.60;99.90
9542;DHT22;4809;48.224;8.572;2023-07-22T06:27:58;16.70;99.90
9542;DHT22;4809;48.224;8.572;2023-07-22T06:30:23;16.70;99.90
9542;DHT22;4809;48.224;8.572;2023-07-22T06:32:49;16.80;99.90
9542;DHT22;4809;48.224;8.572;2023-07-22T06:35:14;17.00;99.90
9542;DHT22;4809;48.224;8.572;2023-07-22T06:37:40;17.10;99.90
9542;DHT22;4809;48.224;8.572;2023-07-22T06:40:06;17.20;99.90
9542;DHT22;4809;48.224;8.572;2023-07-22T06:42:32;17.30;99.90
9542;DHT22;4809;48.224;8.572;2023-07-22T06:44:58;17.40;99.90
9542;DHT22;4809;48.224;8.572;2023-07-22T06:47:23;17.50;99.90
9542;DHT22;4809;48.224;8.572;2023-07-22T06:49:49;17.70;99.90
9542;DHT22;4809;48.224;8.572;2023-07-22T06:52:16;17.80;99.90
9542;DHT22;4809;48.224;8.572;2023-07-22T06:54:42;17.90;99.90
9542;DHT22;4809;48.224;8.572;2023-07-22T06:57:07;18.00;99.90
9542;DHT22;4809;48.224;8.572;2023-07-22T06:59:33;18.10;99.90
9542;DHT22;4809;48.224;8.572;2023-07-22T07:01:59;18.20;99.90
9542;DHT22;4809;48.224;8.572;2023-07-22T07:04:24;18.30;99.90
9542;DHT22;4809;48.224;8.572;2023-07-22T07:06:50;18.40;99.90
9542;DHT22;4809;48.224;8.572;2023-07-22T07:09:16;18.60;99.90
9542;DHT22;4809;48.224;8.572;2023-07-22T07:11:42;18.80;99.90
9542;DHT22;4809;48.224;8.572;2023-07-22T07:14:07;19.00;99.90
9542;DHT22;4809;48.224;8.572;2023-07-22T07:16:33;19.10;99.90
9542;DHT22;4809;48.224;8.572;2023-07-22T07:19:00;19.30;99.90
9542;DHT22;4809;48.224;8.572;2023-07-22T07:21:27;19.60;99.90
9542;DHT22;4809;48.224;8.572;2023-07-22T07:23:53;19.90;99.90
9542;DHT22;4809;48.224;8.572;2023-07-22T07:26:22;20.10;97.70
9542;DHT22;4809;48.224;8.572;2023-07-22T07:28:48;20.30;97.20
9542;DHT22;4809;48.224;8.572;2023-07-22T07:31:16;20.40;96.70
9542;DHT22;4809;48.224;8.572;2023-07-22T07:33:42;20.50;95.60
9542;DHT22;4809;48.224;8.572;2023-07-22T07:36:08;20.60;95.90
9542;DHT22;4809;48.224;8.572;2023-07-22T07:38:33;20.80;94.60
9542;DHT22;4809;48.224;8.572;2023-07-22T07:41:05;21.20;93.00
9542;DHT22;4809;48.224;8.572;2023-07-22T07:43:34;21.40;92.70
9542;DHT22;4809;48.224;8.572;2023-07-22T07:46:17;21.70;91.70
9542;DHT22;4809;48.224;8.572;2023-07-22T07:48:49;21.50;91.50
9542;DHT22;4809;48.224;8.572;2023-07-22T07:51:16;21.20;91.90
9542;DHT22;4809;48.224;8.572;2023-07-22T07:53:43;20.90;92.20
9542;DHT22;4809;48.224;8.572;2023-07-22T07:56:10;21.10;92.20
9542;DHT22;4809;48.224;8.572;2023-07-22T07:58:36;21.60;89.70
9542;DHT22;4809;48.224;8.572;2023-07-22T08:01:02;22.10;87.50
9542;DHT22;4809;48.224;8.572;2023-07-22T08:03:27;22.40;86.30
9542;DHT22;4809;48.224;8.572;2023-07-22T08:05:53;22.50;84.00
9542;DHT22;4809;48.224;8.572;2023-07-22T08:08:20;22.50;86.20
9542;DHT22;4809;48.224;8.572;2023-07-22T08:10:45;22.00;83.00
9542;DHT22;4809;48.224;8.572;2023-07-22T08:13:11;21.50;84.60
9542;DHT22;4809;48.224;8.572;2023-07-22T08:15:37;21.10;85.20
9542;DHT22;4809;48.224;8.572;2023-07-22T08:18:02;20.80;83.70
9542;DHT22;4809;48.224;8.572;2023-07-22T08:20:29;20.70;83.90
9542;DHT22;4809;48.224;8.572;2023-07-22T08:22:56;20.40;83.70
9542;DHT22;4809;48.224;8.572;2023-07-22T08:25:21;20.70;84.70
9542;DHT22;4809;48.224;8.572;2023-07-22T08:27:47;20.60;83.70
9542;DHT22;4809;48.224;8.572;2023-07-22T08:30:12;20.90;83.50
9542;DHT22;4809;48.224;8.572;2023-07-22T08:32:38;21.50;82.50
9542;DHT22;4809;48.224;8.572;2023-07-22T08:35:04;21.90;80.80
9542;DHT22;4809;48.224;8.572;2023-07-22T08:37:31;22.50;81.30
9542;DHT22;4809;48.224;8.572;2023-07-22T08:39:56;23.10;76.20
9542;DHT22;4809;48.224;8.572;2023-07-22T08:42:23;23.50;74.50
9542;DHT22;4809;48.224;8.572;2023-07-22T08:44:51;23.50;74.50
9542;DHT22;4809;48.224;8.572;2023-07-22T08:47:22;22.80;74.30
9542;DHT22;4809;48.224;8.572;2023-07-22T08:49:52;22.30;76.30
9542;DHT22;4809;48.224;8.572;2023-07-22T08:52:19;21.70;76.20
9542;DHT22;4809;48.224;8.572;2023-07-22T08:54:45;21.30;77.80
9542;DHT22;4809;48.224;8.572;2023-07-22T08:57:11;21.30;80.70
9542;DHT22;4809;48.224;8.572;2023-07-22T08:59:38;21.80;79.60
9542;DHT22;4809;48.224;8.572;2023-07-22T09:02:03;22.50;77.00
9542;DHT22;4809;48.224;8.572;2023-07-22T09:04:30;23.20;75.50
9542;DHT22;4809;48.224;8.572;2023-07-22T09:06:57;23.40;70.10
9542;DHT22;4809;48.224;8.572;2023-07-22T09:09:24;23.70;71.10
9542;DHT22;4809;48.224;8.572;2023-07-22T09:11:51;23.50;66.00
9542;DHT22;4809;48.224;8.572;2023-07-22T09:14:19;23.10;67.70
9542;DHT22;4809;48.224;8.572;2023-07-22T09:16:45;23.20;68.70
9542;DHT22;4809;48.224;8.572;2023-07-22T09:19:11;23.30;69.60
9542;DHT22;4809;48.224;8.572;2023-07-22T09:21:37;23.70;67.70
9542;DHT22;4809;48.224;8.572;2023-07-22T09:24:22;23.80;67.30
9542;DHT22;4809;48.224;8.572;2023-07-22T09:26:48;23.50;68.00
9542;DHT22;4809;48.224;8.572;2023-07-22T09:29:14;23.50;68.10
9542;DHT22;4809;48.224;8.572;2023-07-22T09:31:52;23.50;69.50
9542;DHT22;4809;48.224;8.572;2023-07-22T09:34:18;23.80;67.70
9542;DHT22;4809;48.224;8.572;2023-07-22T09:36:52;23.70;66.20
9542;DHT22;4809;48.224;8.572;2023-07-22T09:39:17;23.30;67.40
9542;DHT22;4809;48.224;8.572;2023-07-22T09:41:43;23.10;67.10
9542;DHT22;4809;48.224;8.572;2023-07-22T09:44:10;23.40;69.00
9542;DHT22;4809;48.224;8.572;2023-07-22T09:46:39;23.90;65.40
9542;DHT22;4809;48.224;8.572;2023-07-22T09:49:06;24.10;64.50
9542;DHT22;4809;48.224;8.572;2023-07-22T09:51:39;23.70;61.80
9542;DHT22;4809;48.224;8.572;2023-07-22T09:54:06;23.10;64.60
9542;DHT22;4809;48.224;8.572;2023-07-22T09:56:32;22.90;66.70
9542;DHT22;4809;48.224;8.572;2023-07-22T09:59:10;22.90;66.70
9542;DHT22;4809;48.224;8.572;2023-07-22T10:01:38;22.70;66.70
9542;DHT22;4809;48.224;8.572;2023-07-22T10:04:05;22.60;66.30
9542;DHT22;4809;48.224;8.572;2023-07-22T10:06:31;22.60;65.50
9542;DHT22;4809;48.224;8.572;2023-07-22T10:09:01;22.60;66.80
9542;DHT22;4809;48.224;8.572;2023-07-22T10:11:28;22.50;68.10
9542;DHT22;4809;48.224;8.572;2023-07-22T10:13:55;22.50;67.30
9542;DHT22;4809;48.224;8.572;2023-07-22T10:16:22;22.50;64.70
9542;DHT22;4809;48.224;8.572;2023-07-22T10:18:49;22.40;64.30
9542;DHT22;4809;48.224;8.572;2023-07-22T10:21:15;22.20;65.60
9542;DHT22;4809;48.224;8.572;2023-07-22T10:23:41;22.60;64.80
9542;DHT22;4809;48.224;8.572;2023-07-22T10:26:08;23.20;65.50
9542;DHT22;4809;48.224;8.572;2023-07-22T10:28:37;23.80;63.90
9542;DHT22;4809;48.224;8.572;2023-07-22T10:31:03;24.20;63.20
9542;DHT22;4809;48.224;8.572;2023-07-22T10:33:28;24.80;62.20
9542;DHT22;4809;48.224;8.572;2023-07-22T10:36:04;25.10;62.40
9542;DHT22;4809;48.224;8.572;2023-07-22T10:38:34;25.20;58.90
9542;DHT22;4809;48.224;8.572;2023-07-22T10:41:01;25.10;59.70
9542;DHT22;4809;48.224;8.572;2023-07-22T10:43:32;25.60;57.80
9542;DHT22;4809;48.224;8.572;2023-07-22T10:46:11;26.00;55.90
9542;DHT22;4809;48.224;8.572;2023-07-22T10:48:39;26.00;54.80
9542;DHT22;4809;48.224;8.572;2023-07-22T10:51:11;26.10;57.10
9542;DHT22;4809;48.224;8.572;2023-07-22T10:56:20;26.10;54.80
9542;DHT22;4809;48.224;8.572;2023-07-22T11:01:38;26.00;53.80
9542;DHT22;4809;48.224;8.572;2023-07-22T11:11:56;26.20;53.40
9542;DHT22;4809;48.224;8.572;2023-07-22T11:14:25;25.90;53.10
9542;DHT22;4809;48.224;8.572;2023-07-22T11:16:51;26.10;52.40
9542;DHT22;4809;48.224;8.572;2023-07-22T11:19:19;26.20;51.60
9542;DHT22;4809;48.224;8.572;2023-07-22T11:21:46;26.90;51.40
9542;DHT22;4809;48.224;8.572;2023-07-22T11:24:13;27.00;49.30
9542;DHT22;4809;48.224;8.572;2023-07-22T11:26:39;26.60;48.90
9542;DHT22;4809;48.224;8.572;2023-07-22T11:29:07;26.50;50.20
9542;DHT22;4809;48.224;8.572;2023-07-22T11:31:39;26.90;50.30
9542;DHT22;4809;48.224;8.572;2023-07-22T11:34:08;27.20;53.50
9542;DHT22;4809;48.224;8.572;2023-07-22T11:36:34;27.10;53.20
9542;DHT22;4809;48.224;8.572;2023-07-22T11:41:35;25.70;56.80
9542;DHT22;4809;48.224;8.572;2023-07-22T11:44:02;26.20;56.40
9542;DHT22;4809;48.224;8.572;2023-07-22T11:46:28;26.30;54.80
9542;DHT22;4809;48.224;8.572;2023-07-22T11:48:55;25.90;55.00
9542;DHT22;4809;48.224;8.572;2023-07-22T11:51:24;25.50;56.40
9542;DHT22;4809;48.224;8.572;2023-07-22T11:53:54;25.90;58.00
9542;DHT22;4809;48.224;8.572;2023-07-22T11:56:27;26.20;54.00
9542;DHT22;4809;48.224;8.572;2023-07-22T11:58:55;26.40;54.00
9542;DHT22;4809;48.224;8.572;2023-07-22T12:01:22;26.70;53.30
9542;DHT22;4809;48.224;8.572;2023-07-22T12:03:49;27.10;52.10
9542;DHT22;4809;48.224;8.572;2023-07-22T12:06:20;27.40;50.30
9542;DHT22;4809;48.224;8.572;2023-07-22T12:08:47;27.20;51.50
9542;DHT22;4809;48.224;8.572;2023-07-22T12:11:23;27.40;50.20
9542;DHT22;4809;48.224;8.572;2023-07-22T12:14:13;27.70;50.80
9542;DHT22;4809;48.224;8.572;2023-07-22T12:16:41;27.30;49.50
9542;DHT22;4809;48.224;8.572;2023-07-22T12:19:07;26.80;51.00
9542;DHT22;4809;48.224;8.572;2023-07-22T12:21:33;27.00;49.80
9542;DHT22;4809;48.224;8.572;2023-07-22T12:23:59;27.20;49.40
9542;DHT22;4809;48.224;8.572;2023-07-22T12:26:25;27.70;48.20
9542;DHT22;4809;48.224;8.572;2023-07-22T12:28:51;27.70;48.30
9542;DHT22;4809;48.224;8.572;2023-07-22T12:31:17;27.80;48.50
9542;DHT22;4809;48.224;8.572;2023-07-22T12:33:43;27.80;48.80
9542;DHT22;4809;48.224;8.572;2023-07-22T12:36:08;27.90;48.50
9542;DHT22;4809;48.224;8.572;2023-07-22T12:38:34;28.10;47.20
9542;DHT22;4809;48.224;8.572;2023-07-22T12:41:01;28.20;47.10
9542;DHT22;4809;48.224;8.572;2023-07-22T12:43:27;28.30;46.40
9542;DHT22;4809;48.224;8.572;2023-07-22T12:45:52;28.20;46.70
9542;DHT22;4809;48.224;8.572;2023-07-22T12:48:18;27.80;47.10
9542;DHT22;4809;48.224;8.572;2023-07-22T12:50:44;27.70;48.20
9542;DHT22;4809;48.224;8.572;2023-07-22T12:53:10;27.70;47.10
9542;DHT22;4809;48.224;8.572;2023-07-22T12:55:35;27.50;46.80
9542;DHT22;4809;48.224;8.572;2023-07-22T12:58:01;27.70;47.30
9542;DHT22;4809;48.224;8.572;2023-07-22T13:00:28;27.40;47.50
9542;DHT22;4809;48.224;8.572;2023-07-22T13:02:53;26.80;47.80
9542;DHT22;4809;48.224;8.572;2023-07-22T13:05:19;26.70;49.20
9542;DHT22;4809;48.224;8.572;2023-07-22T13:07:45;26.50;48.70
9542;DHT22;4809;48.224;8.572;2023-07-22T13:10:11;26.50;48.90
9542;DHT22;4809;48.224;8.572;2023-07-22T13:12:40;26.80;49.20
9542;DHT22;4809;48.224;8.572;2023-07-22T13:15:06;27.10;48.30
9542;DHT22;4809;48.224;8.572;2023-07-22T13:17:32;27.10;47.60
9542;DHT22;4809;48.224;8.572;2023-07-22T13:19:57;26.80;47.30
9542;DHT22;4809;48.224;8.572;2023-07-22T13:22:23;26.90;47.20
9542;DHT22;4809;48.224;8.572;2023-07-22T13:24:49;27.30;46.40
9542;DHT22;4809;48.224;8.572;2023-07-22T13:27:14;27.50;46.00
9542;DHT22;4809;48.224;8.572;2023-07-22T13:29:40;27.30;47.00
9542;DHT22;4809;48.224;8.572;2023-07-22T13:32:06;27.50;47.00
9542;DHT22;4809;48.224;8.572;2023-07-22T13:34:32;27.00;46.90
9542;DHT22;4809;48.224;8.572;2023-07-22T13:36:58;26.50;48.30
9542;DHT22;4809;48.224;8.572;2023-07-22T13:39:24;26.70;48.40
9542;DHT22;4809;48.224;8.572;2023-07-22T13:41:49;26.60;47.40
9542;DHT22;4809;48.224;8.572;2023-07-22T13:44:16;26.60;47.10
9542;DHT22;4809;48.224;8.572;2023-07-22T13:46:41;27.30;47.70
9542;DHT22;4809;48.224;8.572;2023-07-22T13:49:07;27.90;46.80
9542;DHT22;4809;48.224;8.572;2023-07-22T13:51:33;28.10;46.40
9542;DHT22;4809;48.224;8.572;2023-07-22T13:53:59;28.00;45.50
9542;DHT22;4809;48.224;8.572;2023-07-22T13:56:24;27.80;45.90
9542;DHT22;4809;48.224;8.572;2023-07-22T13:58:50;27.30;45.60
9542;DHT22;4809;48.224;8.572;2023-07-22T14:01:16;27.10;46.00
9542;DHT22;4809;48.224;8.572;2023-07-22T14:03:42;27.10;47.00
9542;DHT22;4809;48.224;8.572;2023-07-22T14:06:07;27.10;47.60
9542;DHT22;4809;48.224;8.572;2023-07-22T14:08:33;27.50;45.40
9542;DHT22;4809;48.224;8.572;2023-07-22T14:10:59;27.40;45.40
9542;DHT22;4809;48.224;8.572;2023-07-22T14:13:25;27.20;45.90
9542;DHT22;4809;48.224;8.572;2023-07-22T14:15:50;26.80;45.20
9542;DHT22;4809;48.224;8.572;2023-07-22T14:18:16;27.10;45.90
9542;DHT22;4809;48.224;8.572;2023-07-22T14:20:43;27.80;46.60
9542;DHT22;4809;48.224;8.572;2023-07-22T14:23:11;28.40;44.60
9542;DHT22;4809;48.224;8.572;2023-07-22T14:25:36;28.40;45.30
9542;DHT22;4809;48.224;8.572;2023-07-22T14:28:02;28.40;44.90
9542;DHT22;4809;48.224;8.572;2023-07-22T14:30:28;28.30;46.20
9542;DHT22;4809;48.224;8.572;2023-07-22T14:32:53;28.30;45.00
9542;DHT22;4809;48.224;8.572;2023-07-22T14:35:19;28.20;45.60
9542;DHT22;4809;48.224;8.572;2023-07-22T14:37:44;28.10;44.30
9542;DHT22;4809;48.224;8.572;2023-07-22T14:40:11;28.10;45.40
9542;DHT22;4809;48.224;8.572;2023-07-22T14:42:37;28.50;44.50
9542;DHT22;4809;48.224;8.572;2023-07-22T14:45:04;28.80;43.80
9542;DHT22;4809;48.224;8.572;2023-07-22T14:47:30;28.60;42.70
9542;DHT22;4809;48.224;8.572;2023-07-22T14:49:56;27.80;44.40
9542;DHT22;4809;48.224;8.572;2023-07-22T14:52:21;27.40;45.20
9542;DHT22;4809;48.224;8.572;2023-07-22T14:54:48;27.30;45.30
9542;DHT22;4809;48.224;8.572;2023-07-22T14:57:14;27.40;44.90
9542;DHT22;4809;48.224;8.572;2023-07-22T14:59:40;27.60;45.40
9542;DHT22;4809;48.224;8.572;2023-07-22T15:02:06;27.30;45.50
9542;DHT22;4809;48.224;8.572;2023-07-22T15:04:32;26.90;46.00
9542;DHT22;4809;48.224;8.572;2023-07-22T15:07:00;26.90;46.90
9542;DHT22;4809;48.224;8.572;2023-07-22T15:09:26;27.00;47.50
9542;DHT22;4809;48.224;8.572;2023-07-22T15:11:51;27.10;47.20
9542;DHT22;4809;48.224;8.572;2023-07-22T15:14:18;27.20;47.30
9542;DHT22;4809;48.224;8.572;2023-07-22T15:16:44;27.50;46.50
9542;DHT22;4809;48.224;8.572;2023-07-22T15:19:09;27.50;45.90
9542;DHT22;4809;48.224;8.572;2023-07-22T15:21:35;27.30;47.00
9542;DHT22;4809;48.224;8.572;2023-07-22T15:24:01;27.10;47.00
9542;DHT22;4809;48.224;8.572;2023-07-22T15:26:27;26.60;47.40
9542;DHT22;4809;48.224;8.572;2023-07-22T15:28:53;26.40;48.50
9542;DHT22;4809;48.224;8.572;2023-07-22T15:31:19;26.20;48.30
9542;DHT22;4809;48.224;8.572;2023-07-22T15:33:46;26.30;47.10
9542;DHT22;4809;48.224;8.572;2023-07-22T15:36:12;26.50;45.70
9542;DHT22;4809;48.224;8.572;2023-07-22T15:38:37;26.90;46.40
9542;DHT22;4809;48.224;8.572;2023-07-22T15:41:03;27.20;46.20
9542;DHT22;4809;48.224;8.572;2023-07-22T15:43:29;27.50;45.40
9542;DHT22;4809;48.224;8.572;2023-07-22T15:45:55;27.70;44.80
9542;DHT22;4809;48.224;8.572;2023-07-22T15:48:21;27.80;44.40
9542;DHT22;4809;48.224;8.572;2023-07-22T15:50:48;28.00;43.90
9542;DHT22;4809;48.224;8.572;2023-07-22T15:53:15;28.10;43.70
9542;DHT22;4809;48.224;8.572;2023-07-22T15:55:40;27.80;44.30
9542;DHT22;4809;48.224;8.572;2023-07-22T15:58:06;27.70;44.00
9542;DHT22;4809;48.224;8.572;2023-07-22T16:00:32;27.70;44.40
9542;DHT22;4809;48.224;8.572;2023-07-22T16:02:57;27.70;43.90
9542;DHT22;4809;48.224;8.572;2023-07-22T16:05:23;27.20;43.70
9542;DHT22;4809;48.224;8.572;2023-07-22T16:07:50;26.70;45.00
9542;DHT22;4809;48.224;8.572;2023-07-22T16:10:15;26.20;45.20
9542;DHT22;4809;48.224;8.572;2023-07-22T16:12:41;25.70;44.90
9542;DHT22;4809;48.224;8.572;2023-07-22T16:15:07;25.40;45.10
9542;DHT22;4809;48.224;8.572;2023-07-22T16:17:33;25.40;46.50